Terminal Aerodrome Forecast
Issued by NWS Knoxville/Tri Cities, TN

Home | Current Version | Previous Version | Text Only | Print | Product List | Glossary On
Versions: 1 2 3 4 5 6 7 8 9 10 11 12 13 14 15 16
000
FTUS44 KMRX 311740
TAFTRI
TAF
KTRI 311740Z 3118/0118 VRB04KT P6SM SCT040 BKN250
     FM010000 00000KT P6SM SCT070 BKN250
     FM010600 00000KT 5SM BR SCT070 BKN250
      TEMPO 0108/0112 1 1/2SM BR
     FM011400 00000KT P6SM SCT250=

USA.gov is the U.S. government's official web portal to all federal, state and local government web resources and services.